createdAt,value
2022-08-17T00:00:38.018Z,22.22
2022-08-17T00:03:13.654Z,22.18
2022-08-17T00:05:50.882Z,22.14
2022-08-17T00:08:20.452Z,22.14
2022-08-17T00:10:48.148Z,22.09
2022-08-17T00:13:25.934Z,22.04
2022-08-17T00:15:57.822Z,22.00
2022-08-17T00:19:01.850Z,21.98
2022-08-17T00:21:11.965Z,21.99
2022-08-17T00:23:47.805Z,21.96
2022-08-17T00:26:16.081Z,21.91
2022-08-17T00:29:03.264Z,21.88
2022-08-17T00:31:29.764Z,21.87
2022-08-17T00:33:56.357Z,21.79
2022-08-17T00:36:25.225Z,21.71
2022-08-17T00:38:52.097Z,21.69
2022-08-17T00:41:22.384Z,21.69
2022-08-17T00:43:52.515Z,21.71
2022-08-17T00:46:28.242Z,21.70
2022-08-17T00:48:55.787Z,21.70
2022-08-17T00:51:43.775Z,21.70
2022-08-17T00:54:15.106Z,21.66
2022-08-17T00:56:48.778Z,21.57
2022-08-17T00:59:23.113Z,21.51
2022-08-17T01:01:52.135Z,21.48
2022-08-17T01:04:20.949Z,21.46
2022-08-17T01:06:49.591Z,21.46
2022-08-17T01:09:17.401Z,21.46
2022-08-17T01:11:48.757Z,21.48
2022-08-17T01:14:15.279Z,21.50
2022-08-17T01:16:41.791Z,21.46
2022-08-17T01:19:16.945Z,21.43
2022-08-17T01:22:02.872Z,21.40
2022-08-17T01:24:29.954Z,21.35
2022-08-17T01:26:57.665Z,21.32
2022-08-17T01:29:26.878Z,21.32
2022-08-17T01:31:57.335Z,21.30
2022-08-17T01:34:32.758Z,21.29
2022-08-17T01:37:10.704Z,21.26
2022-08-17T01:39:45.737Z,21.23
2022-08-17T01:42:29.455Z,21.22
2022-08-17T01:45:01.669Z,21.21
2022-08-17T01:47:28.107Z,21.20
2022-08-17T01:49:59.900Z,21.16
2022-08-17T01:52:27.547Z,21.12
2022-08-17T01:54:54.875Z,21.11
2022-08-17T01:57:24.164Z,21.04
2022-08-17T01:59:50.604Z,21.04
2022-08-17T02:02:31.051Z,21.04
2022-08-17T02:04:58.005Z,21.04
2022-08-17T02:07:24.639Z,21.03
2022-08-17T02:09:53.625Z,21.00
2022-08-17T02:12:38.865Z,20.98
2022-08-17T02:15:07.958Z,20.94
2022-08-17T02:17:35.083Z,20.90
2022-08-17T02:20:01.967Z,20.86
2022-08-17T02:22:31.122Z,20.81
2022-08-17T02:25:02.384Z,20.76
2022-08-17T02:27:29.298Z,20.74
2022-08-17T02:29:55.803Z,20.74
2022-08-17T02:32:27.321Z,20.77
2022-08-17T02:34:54.554Z,20.77
2022-08-17T02:37:20.997Z,20.77
2022-08-17T02:39:47.722Z,20.76
2022-08-17T02:42:16.802Z,20.78
2022-08-17T02:44:44.915Z,20.80
2022-08-17T02:47:11.934Z,20.80
2022-08-17T02:49:38.376Z,20.78
2022-08-17T02:52:07.223Z,20.78
2022-08-17T02:54:41.521Z,20.75
2022-08-17T02:57:09.836Z,20.77
2022-08-17T02:59:36.689Z,20.74
2022-08-17T03:02:04.709Z,20.71
2022-08-17T03:04:31.337Z,20.68
2022-08-17T03:07:05.651Z,20.64
2022-08-17T03:09:32.735Z,20.58
2022-08-17T03:12:12.137Z,20.59
2022-08-17T03:14:41.857Z,20.57
2022-08-17T03:17:17.335Z,20.55
2022-08-17T03:19:49.424Z,20.45
2022-08-17T03:22:35.651Z,20.45
2022-08-17T03:25:02.504Z,20.50
2022-08-17T03:27:30.476Z,20.44
2022-08-17T03:29:56.937Z,20.31
2022-08-17T03:32:24.589Z,20.24
2022-08-17T03:34:51.016Z,20.14
2022-08-17T03:37:17.422Z,19.97
2022-08-17T03:39:43.919Z,19.90
2022-08-17T03:42:32.214Z,19.92
2022-08-17T03:44:59.157Z,19.92
2022-08-17T03:47:44.497Z,19.94
2022-08-17T03:50:31.785Z,20.03
2022-08-17T03:53:16.583Z,20.05
2022-08-17T03:56:01.546Z,20.02
2022-08-17T03:58:28.118Z,20.00
2022-08-17T04:00:55.237Z,20.04
2022-08-17T04:03:21.664Z,20.05
2022-08-17T04:05:48.145Z,20.04
2022-08-17T04:08:14.722Z,20.04
2022-08-17T04:10:44.878Z,20.05
2022-08-17T04:13:12.437Z,20.08
2022-08-17T04:15:38.867Z,20.06
2022-08-17T04:18:07.443Z,20.05
2022-08-17T04:20:34.371Z,19.97
2022-08-17T04:23:04.201Z,19.90
2022-08-17T04:25:34.461Z,19.89
2022-08-17T04:28:01.353Z,19.89
2022-08-17T04:30:31.169Z,19.90
2022-08-17T04:33:05.792Z,19.90
2022-08-17T04:35:36.945Z,19.93
2022-08-17T04:38:03.772Z,19.93
2022-08-17T04:40:48.871Z,19.98
2022-08-17T04:43:20.537Z,20.00
2022-08-17T04:46:07.920Z,19.97
2022-08-17T04:48:40.227Z,19.97
2022-08-17T04:51:11.541Z,19.93
2022-08-17T04:53:40.081Z,19.92
2022-08-17T04:56:06.766Z,19.94
2022-08-17T04:58:33.720Z,20.00
2022-08-17T05:01:00.570Z,20.06
2022-08-17T05:03:27.830Z,20.07
2022-08-17T05:05:56.964Z,20.08
2022-08-17T05:08:25.286Z,20.10
2022-08-17T05:10:52.061Z,20.01
2022-08-17T05:13:26.795Z,20.00
2022-08-17T05:16:03.589Z,20.03
2022-08-17T05:18:30.569Z,20.03
2022-08-17T05:20:57.338Z,20.06
2022-08-17T05:23:27.593Z,20.12
2022-08-17T05:26:10.323Z,20.26
2022-08-17T05:28:41.619Z,20.43
2022-08-17T05:31:11.254Z,20.55
2022-08-17T05:33:42.674Z,20.49
2022-08-17T05:36:43.331Z,20.52
2022-08-17T05:39:00.119Z,20.52
2022-08-17T05:41:26.596Z,20.55
2022-08-17T05:43:56.201Z,20.65
2022-08-17T05:46:28.684Z,20.69
2022-08-17T05:49:03.604Z,20.86
2022-08-17T05:51:48.640Z,21.02
2022-08-17T05:54:52.715Z,21.09
2022-08-17T05:57:30.457Z,21.23
2022-08-17T06:00:07.425Z,21.43
2022-08-17T06:02:58.095Z,21.65
2022-08-17T06:05:36.681Z,21.96
2022-08-17T06:08:21.939Z,22.23
2022-08-17T06:11:02.504Z,22.45
2022-08-17T06:13:47.247Z,22.61
2022-08-17T06:16:31.145Z,22.58
2022-08-17T06:19:04.220Z,22.44
2022-08-17T06:21:44.314Z,22.34
2022-08-17T06:24:39.322Z,22.36
2022-08-17T06:27:30.381Z,22.59
2022-08-17T06:30:11.026Z,22.81
2022-08-17T06:32:39.888Z,22.93
2022-08-17T06:35:11.038Z,23.02
2022-08-17T06:38:33.976Z,23.15
2022-08-17T06:41:16.300Z,23.08
2022-08-17T06:44:09.853Z,23.07
2022-08-17T06:46:46.242Z,23.27
2022-08-17T06:49:34.236Z,23.52
2022-08-17T06:52:45.403Z,23.61
2022-08-17T06:55:18.056Z,23.78
2022-08-17T06:57:59.734Z,23.93
2022-08-17T07:00:38.224Z,24.10
2022-08-17T07:03:08.286Z,24.12
2022-08-17T07:05:44.463Z,24.08
2022-08-17T07:08:19.718Z,24.25
2022-08-17T07:10:52.510Z,24.53
2022-08-17T07:13:37.916Z,24.74
2022-08-17T07:16:20.417Z,24.78
2022-08-17T07:18:50.453Z,24.86
2022-08-17T07:21:28.452Z,24.98
2022-08-17T07:24:06.838Z,25.19
2022-08-17T07:26:33.358Z,25.38
2022-08-17T07:29:06.034Z,25.51
2022-08-17T07:31:33.386Z,25.63
2022-08-17T07:34:08.329Z,25.75
2022-08-17T07:36:38.040Z,25.84
2022-08-17T07:39:04.935Z,25.87
2022-08-17T07:41:53.526Z,26.04
2022-08-17T07:44:25.335Z,26.24
2022-08-17T07:47:14.901Z,26.32
2022-08-17T07:49:46.003Z,26.12
2022-08-17T07:52:50.658Z,26.11
2022-08-17T07:55:33.806Z,26.32
2022-08-17T07:58:00.415Z,26.18
2022-08-17T08:00:31.495Z,26.03
2022-08-17T08:03:15.544Z,25.70
2022-08-17T08:05:56.688Z,25.49
2022-08-17T08:08:46.413Z,25.40
2022-08-17T08:11:28.358Z,25.46
2022-08-17T08:13:54.903Z,25.40
2022-08-17T08:16:25.693Z,25.34
2022-08-17T08:18:57.624Z,25.34
2022-08-17T08:21:49.194Z,25.24
2022-08-17T08:24:37.379Z,25.19
2022-08-17T08:27:15.911Z,25.10
2022-08-17T08:30:04.896Z,25.01
2022-08-17T08:32:45.972Z,24.92
2022-08-17T08:35:31.561Z,24.91
2022-08-17T08:37:58.014Z,24.87
2022-08-17T08:40:24.826Z,24.88
2022-08-17T08:43:06.829Z,24.93
2022-08-17T08:46:08.795Z,24.94
2022-08-17T08:49:12.387Z,24.91
2022-08-17T08:51:55.571Z,24.88
2022-08-17T08:54:35.196Z,24.85
2022-08-17T08:57:25.675Z,24.81
2022-08-17T09:00:22.905Z,24.78
2022-08-17T09:03:13.669Z,24.72
2022-08-17T09:05:48.433Z,24.72
2022-08-17T09:08:48.718Z,24.73
2022-08-17T09:11:24.467Z,24.73
2022-08-17T09:14:17.147Z,24.72
2022-08-17T09:17:14.930Z,24.72
2022-08-17T09:19:51.949Z,24.74
2022-08-17T09:22:26.679Z,24.76
2022-08-17T09:25:06.798Z,24.78
2022-08-17T09:27:46.236Z,24.79
2022-08-17T09:30:13.519Z,24.81
2022-08-17T09:32:47.080Z,24.82
2022-08-17T09:35:36.452Z,24.84
2022-08-17T09:38:04.179Z,24.82
2022-08-17T09:40:38.515Z,24.79
2022-08-17T09:43:31.799Z,24.75
2022-08-17T09:46:06.219Z,24.73
2022-08-17T09:48:50.391Z,24.70
2022-08-17T09:51:32.444Z,24.72
2022-08-17T09:54:34.897Z,24.73
2022-08-17T09:57:29.252Z,24.79
2022-08-17T10:00:16.405Z,24.88
2022-08-17T10:02:57.477Z,24.98
2022-08-17T10:05:47.011Z,25.05
2022-08-17T10:08:32.089Z,25.10
2022-08-17T10:11:45.680Z,25.09
2022-08-17T10:14:44.049Z,25.07
2022-08-17T10:17:25.139Z,25.11
2022-08-17T10:20:12.406Z,25.21
2022-08-17T10:23:20.660Z,25.25
2022-08-17T10:26:15.854Z,25.31
2022-08-17T10:29:01.605Z,25.38
2022-08-17T10:31:35.184Z,25.48
2022-08-17T10:34:11.258Z,25.43
2022-08-17T10:37:12.111Z,25.31
2022-08-17T10:39:52.214Z,25.23
2022-08-17T10:42:36.759Z,25.23
2022-08-17T10:45:18.295Z,25.29
2022-08-17T10:48:21.915Z,25.38
2022-08-17T10:51:02.015Z,25.50
2022-08-17T10:53:31.396Z,25.56
2022-08-17T10:56:13.348Z,25.55
2022-08-17T10:59:00.513Z,25.52
2022-08-17T11:01:32.922Z,25.44
2022-08-17T11:04:23.351Z,25.38
2022-08-17T11:07:25.864Z,25.40
2022-08-17T11:10:16.993Z,25.37
2022-08-17T11:13:01.777Z,25.35
2022-08-17T11:15:53.196Z,25.32
2022-08-17T11:18:28.872Z,25.25
2022-08-17T11:21:17.366Z,25.14
2022-08-17T11:24:24.310Z,24.79
2022-08-17T11:27:19.528Z,24.57
2022-08-17T11:30:06.253Z,24.47
2022-08-17T11:32:52.929Z,24.31
2022-08-17T11:35:21.462Z,24.23
2022-08-17T11:38:28.411Z,24.12
2022-08-17T11:41:01.040Z,24.07
2022-08-17T11:43:48.814Z,24.04
2022-08-17T11:47:07.991Z,24.03
2022-08-17T11:50:04.750Z,24.02
2022-08-17T11:52:48.979Z,24.04
2022-08-17T11:55:37.551Z,24.07
2022-08-17T11:58:37.774Z,24.13
2022-08-17T12:01:10.399Z,24.20
2022-08-17T12:03:42.390Z,24.25
2022-08-17T12:06:31.206Z,24.32
2022-08-17T12:09:06.991Z,24.39
2022-08-17T12:11:55.158Z,24.41
2022-08-17T12:15:07.956Z,24.48
2022-08-17T12:17:39.551Z,24.51
2022-08-17T12:20:21.379Z,24.51
2022-08-17T12:22:57.482Z,24.62
2022-08-17T12:25:41.362Z,24.81
2022-08-17T12:28:31.094Z,25.01
2022-08-17T12:31:21.687Z,25.02
2022-08-17T12:33:49.920Z,25.06
2022-08-17T12:36:20.850Z,25.05
2022-08-17T12:39:14.201Z,25.13
2022-08-17T12:41:46.777Z,25.26
2022-08-17T12:44:29.106Z,25.34
2022-08-17T12:47:07.710Z,25.37
2022-08-17T12:49:40.866Z,25.43
2022-08-17T12:52:19.604Z,25.46
2022-08-17T12:55:05.580Z,25.51
2022-08-17T12:57:43.681Z,25.54
2022-08-17T13:00:28.285Z,25.62
2022-08-17T13:02:59.514Z,25.70
2022-08-17T13:05:30.828Z,25.79
2022-08-17T13:07:59.266Z,25.91
2022-08-17T13:10:32.858Z,26.14
2022-08-17T13:13:05.131Z,26.63
2022-08-17T13:15:44.459Z,27.07
2022-08-17T13:18:35.824Z,27.18
2022-08-17T13:21:02.674Z,27.36
2022-08-17T13:23:33.844Z,27.64
2022-08-17T13:26:16.980Z,27.85
2022-08-17T13:28:49.695Z,28.04
2022-08-17T13:31:30.230Z,28.26
2022-08-17T13:34:18.765Z,28.41
2022-08-17T13:36:46.973Z,28.52
2022-08-17T13:39:23.354Z,28.64
2022-08-17T13:41:52.501Z,28.76
2022-08-17T13:44:39.130Z,28.47
2022-08-17T13:47:17.050Z,28.32
2022-08-17T13:49:48.335Z,28.52
2022-08-17T13:52:34.788Z,28.91
2022-08-17T13:55:06.612Z,29.04
2022-08-17T13:57:35.216Z,28.83
2022-08-17T14:00:30.092Z,28.70
2022-08-17T14:02:58.225Z,28.84
2022-08-17T14:05:28.294Z,29.02
2022-08-17T14:07:57.465Z,29.25
2022-08-17T14:10:25.384Z,29.27
2022-08-17T14:12:52.789Z,29.01
2022-08-17T14:15:56.124Z,29.07
2022-08-17T14:18:11.187Z,29.21
2022-08-17T14:20:40.645Z,29.21
2022-08-17T14:23:08.312Z,29.35
2022-08-17T14:25:34.911Z,29.54
2022-08-17T14:28:01.768Z,29.67
2022-08-17T14:30:28.994Z,29.67
2022-08-17T14:32:57.902Z,29.65
2022-08-17T14:35:24.959Z,29.73
2022-08-17T14:37:57.701Z,29.52
2022-08-17T14:40:25.028Z,29.18
2022-08-17T14:42:53.470Z,29.04
2022-08-17T14:45:29.938Z,29.08
2022-08-17T14:47:58.964Z,29.15
2022-08-17T14:50:25.451Z,29.27
2022-08-17T14:52:58.222Z,29.45
2022-08-17T14:55:26.105Z,29.45
2022-08-17T14:57:52.644Z,29.31
2022-08-17T15:00:19.397Z,29.25
2022-08-17T15:02:53.753Z,29.30
2022-08-17T15:05:23.053Z,29.33
2022-08-17T15:07:49.792Z,29.18
2022-08-17T15:10:17.638Z,29.03
2022-08-17T15:12:44.141Z,28.91
2022-08-17T15:15:13.898Z,28.80
2022-08-17T15:17:43.965Z,28.64
2022-08-17T15:20:21.844Z,28.56
2022-08-17T15:22:55.168Z,28.53
2022-08-17T15:25:22.514Z,28.48
2022-08-17T15:27:49.352Z,28.50
2022-08-17T15:30:16.764Z,28.58
2022-08-17T15:32:51.017Z,28.74
2022-08-17T15:35:26.929Z,28.79
2022-08-17T15:37:55.626Z,28.85
2022-08-17T15:40:22.132Z,29.07
2022-08-17T15:42:49.226Z,29.27
2022-08-17T15:45:16.897Z,29.35
2022-08-17T15:47:46.517Z,29.38
2022-08-17T15:50:13.163Z,29.34
2022-08-17T15:52:41.619Z,29.25
2022-08-17T15:55:13.649Z,29.08
2022-08-17T15:57:40.725Z,28.86
2022-08-17T16:00:08.696Z,28.66
2022-08-17T16:03:45.925Z,28.51
2022-08-17T16:05:26.413Z,28.42
2022-08-17T16:07:53.602Z,28.37
2022-08-17T16:10:21.145Z,28.33
2022-08-17T16:12:49.614Z,28.24
2022-08-17T16:15:20.298Z,28.20
2022-08-17T16:17:47.150Z,28.14
2022-08-17T16:20:20.161Z,28.10
2022-08-17T16:22:48.810Z,28.03
2022-08-17T16:25:19.471Z,27.97
2022-08-17T16:27:49.085Z,27.89
2022-08-17T16:30:18.201Z,27.82
2022-08-17T16:32:45.249Z,27.80
2022-08-17T16:35:17.251Z,27.77
2022-08-17T16:37:45.611Z,27.74
2022-08-17T16:40:13.473Z,27.74
2022-08-17T16:42:40.954Z,27.69
2022-08-17T16:45:23.509Z,27.65
2022-08-17T16:47:54.485Z,27.61
2022-08-17T16:50:23.427Z,27.56
2022-08-17T16:52:50.548Z,27.50
2022-08-17T16:55:21.511Z,27.42
2022-08-17T16:57:50.179Z,27.35
2022-08-17T17:00:19.436Z,27.27
2022-08-17T17:02:48.205Z,27.22
2022-08-17T17:05:36.224Z,27.16
2022-08-17T17:08:12.744Z,27.09
2022-08-17T17:10:57.267Z,27.03
2022-08-17T17:13:32.648Z,26.97
2022-08-17T17:16:01.457Z,26.93
2022-08-17T17:18:39.193Z,26.89
2022-08-17T17:21:09.944Z,26.84
2022-08-17T17:24:00.152Z,26.80
2022-08-17T17:26:45.241Z,26.74
2022-08-17T17:29:48.513Z,26.68
2022-08-17T17:32:27.897Z,26.61
2022-08-17T17:35:04.671Z,26.54
2022-08-17T17:37:34.712Z,26.48
2022-08-17T17:40:12.838Z,26.44
2022-08-17T17:42:43.338Z,26.41
2022-08-17T17:45:21.949Z,26.38
2022-08-17T17:47:49.139Z,26.34
2022-08-17T17:50:18.112Z,26.29
2022-08-17T17:53:20.010Z,26.23
2022-08-17T17:56:35.593Z,26.19
2022-08-17T17:59:23.299Z,26.14
2022-08-17T18:01:57.193Z,26.09
2022-08-17T18:04:50.539Z,26.02
2022-08-17T18:07:33.744Z,25.97
2022-08-17T18:10:29.565Z,25.91
2022-08-17T18:13:28.813Z,25.85
2022-08-17T18:16:16.889Z,25.80
2022-08-17T18:19:18.604Z,25.74
2022-08-17T18:21:48.508Z,25.67
2022-08-17T18:24:15.063Z,25.65
2022-08-17T18:26:52.258Z,25.55
2022-08-17T18:29:24.483Z,25.49
2022-08-17T18:32:12.823Z,25.47
2022-08-17T18:34:48.570Z,25.46
2022-08-17T18:37:29.613Z,25.43
2022-08-17T18:39:56.144Z,25.42
2022-08-17T18:42:26.534Z,25.36
2022-08-17T18:44:55.297Z,25.29
2022-08-17T18:47:27.983Z,25.23
2022-08-17T18:49:58.051Z,25.20
2022-08-17T18:52:35.780Z,25.17
2022-08-17T18:55:38.584Z,25.15
2022-08-17T18:58:19.683Z,25.13
2022-08-17T19:00:48.986Z,25.08
2022-08-17T19:03:15.437Z,25.02
2022-08-17T19:05:48.102Z,24.97
2022-08-17T19:08:27.814Z,24.93
2022-08-17T19:11:06.041Z,24.92
2022-08-17T19:13:41.486Z,24.89
2022-08-17T19:16:18.059Z,24.86
2022-08-17T19:18:53.441Z,24.85
2022-08-17T19:21:30.378Z,24.87
2022-08-17T19:24:08.509Z,24.89
2022-08-17T19:27:11.924Z,24.91
2022-08-17T19:29:56.520Z,24.87
2022-08-17T19:32:29.912Z,24.79
2022-08-17T19:35:00.927Z,24.76
2022-08-17T19:38:12.949Z,24.71
2022-08-17T19:40:52.863Z,24.68
2022-08-17T19:43:51.223Z,24.65
2022-08-17T19:46:29.920Z,24.59
2022-08-17T19:49:33.233Z,24.54
2022-08-17T19:52:27.723Z,24.52
2022-08-17T19:55:20.634Z,24.48
2022-08-17T19:57:56.102Z,24.45
2022-08-17T20:00:26.792Z,24.37
2022-08-17T20:03:03.928Z,24.33
2022-08-17T20:06:08.855Z,24.35
2022-08-17T20:08:40.630Z,24.36
2022-08-17T20:11:33.981Z,24.37
2022-08-17T20:14:11.720Z,24.31
2022-08-17T20:16:40.785Z,24.25
2022-08-17T20:19:28.940Z,24.21
2022-08-17T20:22:11.720Z,24.23
2022-08-17T20:24:53.711Z,24.22
2022-08-17T20:27:31.902Z,24.23
2022-08-17T20:30:13.039Z,24.24
2022-08-17T20:32:48.851Z,24.21
2022-08-17T20:35:20.599Z,24.19
2022-08-17T20:38:11.348Z,24.12
2022-08-17T20:40:59.689Z,24.06
2022-08-17T20:43:35.532Z,24.04
2022-08-17T20:46:28.415Z,24.04
2022-08-17T20:48:59.822Z,24.01
2022-08-17T20:52:01.459Z,23.95
2022-08-17T20:54:43.147Z,23.92
2022-08-17T20:57:32.580Z,23.89
2022-08-17T21:00:07.447Z,23.82
2022-08-17T21:02:34.013Z,23.80
2022-08-17T21:05:07.229Z,23.83
2022-08-17T21:07:43.629Z,23.83
2022-08-17T21:10:14.988Z,23.86
2022-08-17T21:13:04.426Z,23.88
2022-08-17T21:15:54.383Z,23.91
2022-08-17T21:18:58.720Z,23.94
2022-08-17T21:21:46.609Z,24.01
2022-08-17T21:24:52.474Z,23.99
2022-08-17T21:27:46.874Z,23.97
2022-08-17T21:30:47.497Z,23.95
2022-08-17T21:33:20.088Z,23.93
2022-08-17T21:36:23.785Z,23.94
2022-08-17T21:38:53.397Z,23.91
2022-08-17T21:41:35.150Z,23.91
2022-08-17T21:44:20.689Z,23.91
2022-08-17T21:46:53.307Z,23.91
2022-08-17T21:49:26.580Z,23.91
2022-08-17T21:51:56.528Z,23.92
2022-08-17T21:54:35.642Z,23.95
2022-08-17T21:57:06.379Z,23.98
2022-08-17T21:59:41.939Z,23.95
2022-08-17T22:02:20.010Z,23.94
2022-08-17T22:05:06.731Z,23.96
2022-08-17T22:07:45.774Z,23.94
2022-08-17T22:10:51.364Z,23.85
2022-08-17T22:13:29.640Z,23.75
2022-08-17T22:16:29.032Z,23.75
2022-08-17T22:18:58.244Z,23.81
2022-08-17T22:21:25.565Z,23.83
2022-08-17T22:24:04.546Z,23.82
2022-08-17T22:27:08.209Z,23.78
2022-08-17T22:29:52.916Z,23.70
2022-08-17T22:32:35.004Z,23.61
2022-08-17T22:35:39.053Z,23.47
2022-08-17T22:38:20.818Z,23.30
2022-08-17T22:40:50.988Z,23.24
2022-08-17T22:43:27.481Z,23.15
2022-08-17T22:45:59.912Z,23.06
2022-08-17T22:48:29.185Z,22.95
2022-08-17T22:51:21.069Z,22.84
2022-08-17T22:54:12.105Z,22.83
2022-08-17T22:57:05.283Z,22.79
2022-08-17T22:59:44.196Z,22.74
2022-08-17T23:02:22.318Z,22.69
2022-08-17T23:05:10.051Z,22.68
2022-08-17T23:07:36.630Z,22.62
2022-08-17T23:10:06.522Z,22.61
2022-08-17T23:12:38.794Z,22.55
2022-08-17T23:15:12.700Z,22.42
2022-08-17T23:17:39.131Z,22.37
2022-08-17T23:20:08.292Z,22.32
2022-08-17T23:22:44.681Z,22.33
2022-08-17T23:25:32.080Z,22.32
2022-08-17T23:28:01.467Z,22.25
2022-08-17T23:30:35.093Z,22.13
2022-08-17T23:33:08.267Z,22.04
2022-08-17T23:35:39.771Z,21.99
2022-08-17T23:38:09.054Z,21.94
2022-08-17T23:40:35.793Z,21.91
2022-08-17T23:43:06.046Z,21.87
2022-08-17T23:45:50.233Z,21.84
2022-08-17T23:48:30.309Z,21.74
2022-08-17T23:51:05.805Z,21.73
2022-08-17T23:53:34.815Z,21.76
2022-08-17T23:56:09.710Z,21.78
2022-08-17T23:58:42.221Z,21.72
